createdAt,value
2022-11-24T00:01:05.494Z,7.7
2022-11-24T00:03:09.320Z,7.9
2022-11-24T00:05:12.726Z,7.7
2022-11-24T00:07:19.407Z,7.8
2022-11-24T00:09:23.055Z,7.6
2022-11-24T00:11:26.692Z,7.7
2022-11-24T00:13:30.263Z,7.7
2022-11-24T00:15:33.919Z,7.9
2022-11-24T00:17:37.500Z,7.9
2022-11-24T00:19:41.117Z,7.7
2022-11-24T00:21:47.863Z,7.6
2022-11-24T00:23:51.494Z,7.8
2022-11-24T00:25:55.028Z,7.8
2022-11-24T00:27:58.701Z,7.8
2022-11-24T00:30:02.278Z,7.6
2022-11-24T00:32:05.898Z,7.8
2022-11-24T00:34:09.533Z,7.6
2022-11-24T00:36:16.179Z,7.8
2022-11-24T00:38:19.790Z,7.7
2022-11-24T00:40:23.464Z,7.6
2022-11-24T00:41:26.735Z,7.8
2022-11-24T00:45:33.975Z,7.7
2022-11-24T00:47:37.604Z,7.7
2022-11-24T00:53:51.499Z,7.7
2022-11-24T00:55:55.087Z,7.9
2022-11-24T00:57:58.710Z,7.8
2022-11-24T01:00:02.332Z,7.7
2022-11-24T01:02:05.999Z,7.9
2022-11-24T01:04:12.648Z,7.7
2022-11-24T01:06:16.228Z,7.7
2022-11-24T01:10:23.449Z,7.8
2022-11-24T01:12:27.092Z,7.6
2022-11-24T01:14:30.819Z,7.5
2022-11-24T01:16:34.340Z,7.6
2022-11-24T01:20:44.644Z,7.8
2022-11-24T01:22:48.192Z,7.7
2022-11-24T01:26:55.457Z,7.9
2022-11-24T01:31:02.722Z,7.7
2022-11-24T01:35:12.957Z,7.7
2022-11-24T01:37:16.570Z,7.8
2022-11-24T01:38:19.854Z,7.7
2022-11-24T01:40:23.472Z,7.8
2022-11-24T01:42:27.071Z,7.8
2022-11-24T01:44:30.753Z,7.8
2022-11-24T01:46:37.429Z,7.8
2022-11-24T01:48:40.955Z,7.6
2022-11-24T01:50:44.625Z,7.8
2022-11-24T01:52:48.262Z,7.7
2022-11-24T01:54:51.826Z,7.9
2022-11-24T01:56:55.464Z,7.7
2022-11-24T01:58:59.057Z,7.7
2022-11-24T02:01:05.754Z,7.8
2022-11-24T02:03:09.321Z,7.9
2022-11-24T02:05:12.973Z,7.7
2022-11-24T02:07:16.647Z,7.8
2022-11-24T02:09:20.131Z,7.7
2022-11-24T02:11:23.770Z,7.7
2022-11-24T02:15:34.135Z,7.7
2022-11-24T02:17:37.677Z,7.7
2022-11-24T02:19:41.334Z,7.7
2022-11-24T02:21:44.949Z,7.8
2022-11-24T02:23:48.553Z,7.8
2022-11-24T02:25:52.210Z,7.7
2022-11-24T02:27:55.791Z,7.9
2022-11-24T02:30:02.461Z,7.8
2022-11-24T02:32:06.031Z,7.8
2022-11-24T02:34:09.668Z,7.8
2022-11-24T02:38:35.565Z,7.9
2022-11-24T02:42:45.879Z,7.9
2022-11-24T02:44:49.501Z,7.7
2022-11-24T02:46:53.103Z,7.8
2022-11-24T02:48:56.723Z,7.8
2022-11-24T02:51:00.284Z,7.8
2022-11-24T02:53:03.933Z,7.9
2022-11-24T02:55:07.564Z,7.8
2022-11-24T02:57:14.226Z,7.8
2022-11-24T02:59:17.823Z,7.9
2022-11-24T03:01:21.546Z,7.9
2022-11-24T03:03:25.011Z,7.8
2022-11-24T03:05:28.599Z,7.8
2022-11-24T03:07:32.292Z,7.9
2022-11-24T03:09:35.830Z,7.8
2022-11-24T03:11:42.530Z,7.8
2022-11-24T03:17:53.341Z,8
2022-11-24T03:20:00.206Z,7.9
2022-11-24T03:24:04.162Z,7.9
2022-11-24T03:28:14.468Z,7.8
2022-11-24T03:30:18.080Z,7.7
2022-11-24T03:37:32.229Z,7.7
2022-11-24T03:41:42.553Z,7.6
2022-11-24T03:43:46.159Z,7.7
2022-11-24T03:45:49.788Z,7.6
2022-11-24T03:47:53.422Z,7.7
2022-11-24T03:49:57.025Z,7.6
2022-11-24T03:52:03.835Z,7.8
2022-11-24T03:56:10.876Z,7.7
2022-11-24T03:58:14.510Z,7.7
2022-11-24T04:00:18.139Z,7.8
2022-11-24T04:06:28.955Z,7.8
2022-11-24T04:08:35.644Z,7.9
2022-11-24T04:10:39.318Z,7.9
2022-11-24T04:12:42.864Z,7.9
2022-11-24T04:14:46.562Z,7.9
2022-11-24T04:16:50.103Z,7.9
2022-11-24T04:18:53.795Z,7.8
2022-11-24T04:20:57.355Z,7.9
2022-11-24T04:23:04.353Z,7.8
2022-11-24T04:25:07.718Z,7.8
2022-11-24T04:27:11.294Z,7.7
2022-11-24T04:30:18.234Z,7.6
2022-11-24T04:32:21.841Z,7.7
2022-11-24T04:36:32.215Z,7.8
2022-11-24T04:39:19.899Z,7.8
2022-11-24T04:40:39.420Z,7.8
2022-11-24T04:42:43.010Z,7.8
2022-11-24T04:44:46.610Z,7.7
2022-11-24T04:46:50.390Z,7.8
2022-11-24T04:48:53.871Z,7.8
2022-11-24T04:51:00.547Z,7.7
2022-11-24T04:53:04.107Z,7.7
2022-11-24T04:55:07.712Z,7.7
2022-11-24T05:01:18.645Z,7.7
2022-11-24T05:03:22.187Z,7.7
2022-11-24T05:05:28.887Z,7.7
2022-11-24T05:07:32.492Z,7.6
2022-11-24T05:09:55.225Z,7.5
2022-11-24T05:11:39.733Z,7.7
2022-11-24T05:13:43.347Z,7.7
2022-11-24T05:15:47.015Z,7.6
2022-11-24T05:17:50.566Z,7.7
2022-11-24T05:19:57.234Z,7.6
2022-11-24T05:22:00.901Z,7.5
2022-11-24T05:24:04.513Z,7.7
2022-11-24T05:25:07.827Z,7.6
2022-11-24T05:27:11.491Z,7.8
2022-11-24T05:31:18.808Z,7.7
2022-11-24T05:33:25.380Z,7.9
2022-11-24T05:35:29.006Z,7.9
2022-11-24T05:37:32.649Z,7.9
2022-11-24T05:39:37.827Z,7.7
2022-11-24T05:41:41.390Z,7.9
2022-11-24T05:43:45.011Z,7.9
2022-11-24T05:45:48.663Z,7.8
2022-11-24T05:47:55.372Z,7.9
2022-11-24T05:49:58.929Z,8
2022-11-24T05:52:02.551Z,7.9
2022-11-24T05:54:06.136Z,8
2022-11-24T05:56:09.813Z,7.9
2022-11-24T06:00:17.003Z,7.9
2022-11-24T06:02:23.829Z,7.9
2022-11-24T06:04:27.282Z,7.9
2022-11-24T06:06:30.916Z,8
2022-11-24T06:08:34.520Z,8
2022-11-24T06:10:38.121Z,8
2022-11-24T06:12:41.712Z,7.9
2022-11-24T06:14:45.352Z,8
2022-11-24T06:16:52.137Z,8
2022-11-24T06:18:55.636Z,7.9
2022-11-24T06:21:10.393Z,7.9
2022-11-24T06:27:36.583Z,7.9
2022-11-24T06:29:43.266Z,8
2022-11-24T06:31:46.914Z,7.8
2022-11-24T06:33:50.513Z,7.9
2022-11-24T06:35:54.119Z,7.9
2022-11-24T06:37:57.737Z,7.9
2022-11-24T06:40:01.336Z,7.9
2022-11-24T06:42:05.079Z,7.9
2022-11-24T06:44:11.630Z,7.9
2022-11-24T06:46:15.304Z,7.8
2022-11-24T06:48:18.809Z,7.8
2022-11-24T06:50:22.441Z,7.8
2022-11-24T06:52:26.181Z,7.8
2022-11-24T06:54:29.679Z,7.8
2022-11-24T06:56:33.315Z,7.8
2022-11-24T06:58:39.975Z,7.8
2022-11-24T07:00:43.650Z,7.7
2022-11-24T07:02:47.382Z,7.6
2022-11-24T07:04:50.793Z,7.7
2022-11-24T07:06:54.414Z,7.7
2022-11-24T07:08:58.025Z,7.6
2022-11-24T07:11:01.672Z,7.7
2022-11-24T07:13:08.305Z,7.6
2022-11-24T07:15:11.988Z,7.6
2022-11-24T07:18:18.886Z,7.6
2022-11-24T07:20:22.530Z,7.6
2022-11-24T07:22:26.138Z,7.6
2022-11-24T07:24:29.810Z,7.6
2022-11-24T07:26:36.453Z,7.6
2022-11-24T07:28:40.071Z,7.6
2022-11-24T07:30:43.661Z,7.5
2022-11-24T07:32:47.340Z,7.5
2022-11-24T07:34:50.955Z,7.5
2022-11-24T07:36:54.529Z,7.5
2022-11-24T07:38:58.140Z,7.5
2022-11-24T07:41:04.862Z,7.5
2022-11-24T07:43:08.478Z,7.5
2022-11-24T07:45:12.101Z,7.5
2022-11-24T07:49:19.326Z,7.6
2022-11-24T07:53:26.582Z,7.6
2022-11-24T07:55:33.273Z,7.6
2022-11-24T07:59:40.522Z,7.7
2022-11-24T08:01:44.171Z,7.7
2022-11-24T08:03:47.860Z,7.7
2022-11-24T08:07:55.066Z,7.8
2022-11-24T08:10:01.957Z,7.8
2022-11-24T08:12:05.300Z,7.8
2022-11-24T08:14:08.966Z,7.7
2022-11-24T08:15:12.310Z,7.7
2022-11-24T08:17:15.903Z,7.7
2022-11-24T08:19:19.539Z,7.7
2022-11-24T08:21:23.426Z,7.7
2022-11-24T08:23:29.812Z,7.7
2022-11-24T08:25:33.425Z,7.7
2022-11-24T08:27:37.032Z,7.7
2022-11-24T08:29:40.653Z,7.7
2022-11-24T08:31:44.325Z,7.7
2022-11-24T08:33:47.890Z,7.7
2022-11-24T08:35:51.531Z,7.8
2022-11-24T08:38:04.415Z,8
2022-11-24T08:40:01.853Z,8.2
2022-11-24T08:42:05.457Z,9.4
2022-11-24T08:48:16.299Z,9
2022-11-24T08:52:26.571Z,9
2022-11-24T08:54:30.206Z,9.1
2022-11-24T08:56:33.799Z,9.5
2022-11-24T08:58:37.517Z,9.8
2022-11-24T09:02:44.647Z,9.4
2022-11-24T09:04:48.331Z,10
2022-11-24T09:06:54.937Z,9.6
2022-11-24T09:08:58.562Z,9.6
2022-11-24T09:12:08.670Z,9.2
2022-11-24T09:14:09.189Z,9.8
2022-11-24T09:16:12.937Z,10.6
2022-11-24T09:18:16.383Z,11.1
2022-11-24T09:20:23.036Z,11.9
2022-11-24T09:22:26.645Z,12.5
2022-11-24T09:24:30.264Z,12.9
2022-11-24T09:26:33.879Z,13.3
2022-11-24T09:28:37.485Z,12.5
2022-11-24T09:30:41.265Z,12.3
2022-11-24T09:32:44.693Z,10.9
2022-11-24T09:34:51.351Z,11.4
2022-11-24T09:36:54.997Z,11.2
2022-11-24T09:38:58.562Z,10.2
2022-11-24T09:41:02.149Z,9.5
2022-11-24T09:43:05.753Z,9.5
2022-11-24T09:45:09.336Z,9.7
2022-11-24T09:47:12.930Z,9.6
2022-11-24T09:49:19.579Z,9.5
2022-11-24T09:51:23.163Z,9.8
2022-11-24T09:57:37.239Z,9.3
2022-11-24T09:59:37.727Z,9.2
2022-11-24T10:01:41.204Z,9
2022-11-24T10:03:47.826Z,10.1
2022-11-24T10:05:51.406Z,10.5
2022-11-24T10:07:55.036Z,11.4
2022-11-24T10:10:24.580Z,11.9
2022-11-24T10:12:22.689Z,11.9
2022-11-24T10:14:26.274Z,11.8
2022-11-24T10:18:36.542Z,11.4
2022-11-24T10:20:40.123Z,10.7
2022-11-24T10:22:43.718Z,11.9
2022-11-24T10:24:47.253Z,11.9
2022-11-24T10:26:50.833Z,13.1
2022-11-24T10:28:54.424Z,12.5
2022-11-24T10:31:01.109Z,12.9
2022-11-24T10:33:04.991Z,12.6
2022-11-24T10:35:08.151Z,12.1
2022-11-24T10:37:11.724Z,12.5
2022-11-24T10:39:15.250Z,13.4
2022-11-24T10:41:18.810Z,13.5
2022-11-24T10:43:22.377Z,13.7
2022-11-24T10:45:29.002Z,14.1
2022-11-24T10:47:32.553Z,14.5
2022-11-24T10:49:36.321Z,14.5
2022-11-24T10:51:39.634Z,13.6
2022-11-24T10:53:43.191Z,14.1
2022-11-24T10:55:46.729Z,12.9
2022-11-24T10:57:50.300Z,14
2022-11-24T10:59:56.877Z,14.3
2022-11-24T11:02:00.556Z,14.6
2022-11-24T11:04:03.915Z,15.3
2022-11-24T11:05:07.243Z,12.9
2022-11-24T11:07:10.828Z,13.5
2022-11-24T11:09:14.273Z,14.5
2022-11-24T11:11:17.782Z,14.6
2022-11-24T11:15:28.047Z,15.1
2022-11-24T11:21:38.354Z,16.9
2022-11-24T11:23:41.842Z,16.2
2022-11-24T11:25:45.349Z,16.3
2022-11-24T11:34:04.319Z,15.3
2022-11-24T11:36:07.379Z,13.9
2022-11-24T11:38:10.792Z,13.2
2022-11-24T11:40:14.270Z,13.1
2022-11-24T11:42:45.563Z,13
2022-11-24T11:44:24.287Z,13.1
2022-11-24T11:46:27.797Z,12.9
2022-11-24T11:56:48.265Z,12.5
2022-11-24T11:58:51.751Z,12.3
2022-11-24T12:00:55.246Z,11.9
2022-11-24T12:01:58.524Z,11.9
2022-11-24T12:04:02.150Z,12.1
2022-11-24T12:06:05.480Z,12.3
2022-11-24T12:08:11.549Z,12.3
2022-11-24T12:10:15.586Z,12.8
2022-11-24T12:12:19.105Z,12.7
2022-11-24T12:14:22.624Z,12.7
2022-11-24T12:16:26.167Z,12.6
2022-11-24T12:18:56.381Z,12.9
2022-11-24T12:20:33.189Z,13.4
2022-11-24T12:22:36.663Z,13.1
2022-11-24T12:24:43.335Z,13.2
2022-11-24T12:26:46.807Z,13.8
2022-11-24T12:28:50.356Z,13.5
2022-11-24T12:30:53.898Z,13.9
2022-11-24T12:32:57.384Z,12.9
2022-11-24T12:35:00.875Z,12.1
2022-11-24T12:37:04.460Z,12
2022-11-24T12:43:18.128Z,12.4
2022-11-24T12:45:21.675Z,12.3
2022-11-24T12:47:25.176Z,12.6
2022-11-24T12:49:28.712Z,12.3
2022-11-24T12:53:38.920Z,11.8
2022-11-24T12:55:42.388Z,11.7
2022-11-24T12:57:45.915Z,11.6
2022-11-24T12:58:49.237Z,11.5
2022-11-24T13:02:56.558Z,11.6
2022-11-24T13:04:59.886Z,11.6
2022-11-24T13:07:06.452Z,11.4
2022-11-24T13:11:13.591Z,11.5
2022-11-24T13:13:17.094Z,11.5
2022-11-24T13:15:44.674Z,11.6
2022-11-24T13:19:27.821Z,11.5
2022-11-24T13:21:34.372Z,11.6
2022-11-24T13:27:45.002Z,11.5
2022-11-24T13:29:48.598Z,11.5
2022-11-24T13:31:52.266Z,11.5
2022-11-24T13:33:55.681Z,11.4
2022-11-24T13:36:02.319Z,11.3
2022-11-24T13:38:05.828Z,11.2
2022-11-24T13:40:09.484Z,11.3
2022-11-24T13:42:42.288Z,11.3
2022-11-24T13:44:16.555Z,11.2
2022-11-24T13:46:20.120Z,11.2
2022-11-24T13:48:23.673Z,11.1
2022-11-24T13:50:30.260Z,11
2022-11-24T13:52:33.861Z,11
2022-11-24T13:54:37.431Z,10.9
2022-11-24T13:57:01.643Z,10.9
2022-11-24T13:59:05.117Z,10.9
2022-11-24T14:01:08.673Z,10.9
2022-11-24T14:03:15.370Z,10.9
2022-11-24T14:05:18.880Z,10.9
2022-11-24T14:07:22.495Z,10.9
2022-11-24T14:09:26.008Z,10.8
2022-11-24T14:11:29.591Z,10.8
2022-11-24T14:15:36.808Z,10.8
2022-11-24T14:17:43.370Z,10.7
2022-11-24T14:19:46.936Z,10.7
2022-11-24T14:21:50.509Z,10.7
2022-11-24T14:25:57.651Z,10.6
2022-11-24T14:28:01.270Z,10.6
2022-11-24T14:30:04.814Z,10.6
2022-11-24T14:32:11.464Z,10.6
2022-11-24T14:34:15.048Z,10.6
2022-11-24T14:36:19.989Z,10.6
2022-11-24T14:38:22.188Z,10.5
2022-11-24T14:40:25.767Z,10.5
2022-11-24T14:42:29.328Z,10.5
2022-11-24T14:44:33.201Z,10.6
2022-11-24T14:46:39.668Z,10.5
2022-11-24T14:48:43.230Z,10.4
2022-11-24T14:50:46.763Z,10.3
2022-11-24T14:51:50.096Z,10.3
2022-11-24T14:53:53.661Z,10.3
2022-11-24T14:55:57.236Z,10.2
2022-11-24T14:58:00.833Z,10.1
2022-11-24T15:02:17.062Z,10
2022-11-24T15:04:26.639Z,10
2022-11-24T15:06:18.224Z,9.9
2022-11-24T15:08:21.796Z,9.8
2022-11-24T15:10:30.578Z,9.7
2022-11-24T15:12:29.064Z,9.6
2022-11-24T15:14:35.826Z,9.4
2022-11-24T15:16:39.320Z,9.4
2022-11-24T15:31:07.540Z,9.2
2022-11-24T15:35:14.635Z,9.1
2022-11-24T15:37:18.233Z,9
2022-11-24T15:39:21.883Z,8.9
2022-11-24T15:41:25.417Z,8.9
2022-11-24T15:45:35.684Z,8.7
2022-11-24T15:48:42.638Z,8.7
2022-11-24T15:50:46.229Z,8.6
2022-11-24T15:52:49.843Z,8.5
2022-11-24T15:54:53.504Z,8.5
2022-11-24T15:57:00.171Z,8.5
2022-11-24T15:59:03.735Z,8.4
2022-11-24T16:01:07.367Z,8.4
2022-11-24T16:03:44.572Z,8.3
2022-11-24T16:05:14.568Z,8.3
2022-11-24T16:07:18.203Z,8.3
2022-11-24T16:09:21.745Z,8.4
2022-11-24T16:11:28.412Z,8.4
2022-11-24T16:13:32.010Z,8.4
2022-11-24T16:15:35.624Z,8.3
2022-11-24T16:17:39.196Z,8.3
2022-11-24T16:19:42.897Z,8.4
2022-11-24T16:21:46.409Z,8.4
2022-11-24T16:23:50.180Z,8.3
2022-11-24T16:25:56.688Z,8.4
2022-11-24T16:30:03.874Z,8.2
2022-11-24T16:32:07.539Z,8.4
2022-11-24T16:34:11.095Z,8.2
2022-11-24T16:36:14.732Z,8.4
2022-11-24T16:38:18.284Z,8.3
2022-11-24T16:40:24.978Z,8.2
2022-11-24T16:42:28.576Z,8.2
2022-11-24T16:44:32.387Z,8.3
2022-11-24T16:45:37.501Z,8.3
2022-11-24T16:47:39.013Z,8.2
2022-11-24T16:49:42.605Z,8.3
2022-11-24T16:51:46.214Z,8.4
2022-11-24T16:53:52.902Z,8.4
2022-11-24T16:55:56.488Z,8.3
2022-11-24T16:58:00.115Z,8.3
2022-11-24T17:00:03.746Z,8.1
2022-11-24T17:02:07.374Z,8.3
2022-11-24T17:04:12.779Z,8.3
2022-11-24T17:06:14.519Z,8.2
2022-11-24T17:08:21.175Z,8.3
2022-11-24T17:10:24.764Z,8.3
2022-11-24T17:12:28.393Z,8.4
2022-11-24T17:14:32.273Z,8.3
2022-11-24T17:16:35.638Z,8.3
2022-11-24T17:18:39.214Z,8.3
2022-11-24T17:20:42.814Z,8.2
2022-11-24T17:22:49.500Z,8.3
2022-11-24T17:24:53.097Z,8.2
2022-11-24T17:26:56.723Z,8.2
2022-11-24T17:29:00.337Z,8
2022-11-24T17:33:09.086Z,8.1
2022-11-24T17:37:19.358Z,8.2
2022-11-24T17:39:24.953Z,8.2
2022-11-24T17:41:26.555Z,8.1
2022-11-24T17:43:56.660Z,8.3
2022-11-24T17:46:00.305Z,8.3
2022-11-24T17:48:03.861Z,8.1
2022-11-24T17:50:10.529Z,8.2
2022-11-24T17:52:14.172Z,8.1
2022-11-24T17:54:45.294Z,8.1
2022-11-24T17:56:21.356Z,8.2
2022-11-24T17:58:24.958Z,8.2
2022-11-24T18:00:28.547Z,8.1
2022-11-24T18:02:32.201Z,8.2
2022-11-24T18:04:38.855Z,8.2
2022-11-24T18:06:51.473Z,8.3
2022-11-24T18:12:53.243Z,8.2
2022-11-24T18:17:00.547Z,8.5
2022-11-24T18:19:09.354Z,8.6
2022-11-24T18:21:10.728Z,8.6
2022-11-24T18:23:14.324Z,8.6
2022-11-24T18:25:17.934Z,8.5
2022-11-24T18:27:21.529Z,8.4
2022-11-24T18:29:25.149Z,8.5
2022-11-24T18:31:28.764Z,8.5
2022-11-24T18:33:35.429Z,8.6
2022-11-24T18:35:39.008Z,8.6
2022-11-24T18:37:42.652Z,8.5
2022-11-24T18:38:45.995Z,8.6
2022-11-24T18:40:49.636Z,8.5
2022-11-24T18:42:53.195Z,8.5
2022-11-24T18:44:56.827Z,8.6
2022-11-24T18:47:03.513Z,8.4
2022-11-24T18:49:07.454Z,8.3
2022-11-24T18:51:10.740Z,8.4
2022-11-24T18:53:14.351Z,8.4
2022-11-24T18:55:17.967Z,8.4
2022-11-24T18:57:21.570Z,8.3
2022-11-24T18:59:25.175Z,8.2
2022-11-24T19:01:31.962Z,8.3
2022-11-24T19:03:35.467Z,8.2
2022-11-24T19:05:39.073Z,8.3
2022-11-24T19:07:42.777Z,8.3
2022-11-24T19:09:46.294Z,8.2
2022-11-24T19:11:49.882Z,8.2
2022-11-24T19:13:53.482Z,8.1
2022-11-24T19:16:00.191Z,8.2
2022-11-24T19:24:14.606Z,8.1
2022-11-24T19:26:18.234Z,8
2022-11-24T19:30:28.512Z,7.8
2022-11-24T19:32:32.129Z,7.8
2022-11-24T19:34:36.049Z,7.7
2022-11-24T19:35:39.063Z,7.7
2022-11-24T19:37:42.694Z,7.7
2022-11-24T19:39:46.249Z,7.7
2022-11-24T19:41:49.861Z,7.7
2022-11-24T19:43:56.589Z,7.8
2022-11-24T19:46:00.385Z,7.8
2022-11-24T19:48:03.782Z,7.8
2022-11-24T19:50:10.415Z,7.9
2022-11-24T19:54:14.631Z,7.8
2022-11-24T19:58:24.928Z,7.8
2022-11-24T20:04:36.235Z,7.7
2022-11-24T20:10:46.693Z,7.7
2022-11-24T20:14:56.964Z,7.6
2022-11-24T20:21:07.798Z,7.6
2022-11-24T20:23:11.431Z,7.6
2022-11-24T20:25:15.033Z,7.7
2022-11-24T20:27:21.697Z,7.5
2022-11-24T20:29:25.315Z,7.5
2022-11-24T20:31:28.968Z,7.5
2022-11-24T20:32:32.300Z,7.5
2022-11-24T20:34:36.374Z,7.6
2022-11-24T20:36:39.547Z,7.5
2022-11-24T20:38:43.163Z,7.5
2022-11-24T20:40:49.832Z,7.6
2022-11-24T20:42:53.478Z,7.5
2022-11-24T20:44:57.074Z,7.6
2022-11-24T20:47:00.728Z,7.5
2022-11-24T20:49:04.333Z,7.5
2022-11-24T20:53:11.564Z,7.5
2022-11-24T20:55:18.282Z,7.5
2022-11-24T20:57:21.884Z,7.5
2022-11-24T20:59:27.006Z,7.5
2022-11-24T21:01:29.218Z,7.4
2022-11-24T21:03:32.804Z,7.4
2022-11-24T21:05:36.395Z,7.5
2022-11-24T21:07:40.109Z,7.6
2022-11-24T21:09:46.669Z,7.5
2022-11-24T21:11:50.318Z,7.5
2022-11-24T21:13:53.930Z,7.5
2022-11-24T21:15:57.611Z,7.5
2022-11-24T21:18:01.176Z,7.5
2022-11-24T21:20:04.952Z,7.5
2022-11-24T21:22:08.434Z,7.6
2022-11-24T21:26:18.724Z,7.7
2022-11-24T21:30:46.821Z,7.8
2022-11-24T21:32:50.430Z,7.8
2022-11-24T21:34:54.015Z,7.9
2022-11-24T21:39:04.430Z,7.9
2022-11-24T21:41:07.956Z,7.9
2022-11-24T21:43:11.566Z,7.9
2022-11-24T21:47:18.793Z,7.9
2022-11-24T21:49:22.450Z,7.8
2022-11-24T21:51:29.127Z,7.8
2022-11-24T21:53:32.746Z,7.8
2022-11-24T21:57:39.957Z,7.8
2022-11-24T22:01:47.221Z,8
2022-11-24T22:03:50.797Z,8
2022-11-24T22:05:57.467Z,8
2022-11-24T22:08:01.063Z,8
2022-11-24T22:10:04.680Z,8
2022-11-24T22:12:08.276Z,8
2022-11-24T22:14:11.933Z,8.1
2022-11-24T22:16:15.591Z,8.1
2022-11-24T22:18:19.158Z,8.2
2022-11-24T22:20:25.843Z,8.2
2022-11-24T22:22:29.455Z,8.3
2022-11-24T22:24:32.984Z,8.2
2022-11-24T22:31:47.333Z,8.3
2022-11-24T22:35:57.432Z,8.2
2022-11-24T22:42:08.292Z,8.3
2022-11-24T22:52:29.361Z,8.2
2022-11-24T22:54:33.423Z,8.2
2022-11-24T22:56:36.606Z,8.2
2022-11-24T23:06:57.721Z,8.1
2022-11-24T23:11:04.966Z,8
2022-11-24T23:15:12.158Z,8.1
2022-11-24T23:17:18.870Z,8.1
2022-11-24T23:19:22.449Z,8.1
2022-11-24T23:21:26.073Z,8.2
2022-11-24T23:22:29.429Z,8.2
2022-11-24T23:24:33.337Z,8.2
2022-11-24T23:26:36.633Z,8.3
2022-11-24T23:28:41.816Z,8.3
2022-11-24T23:30:48.417Z,8.3
2022-11-24T23:32:52.039Z,8.4
2022-11-24T23:34:55.653Z,8.4
2022-11-24T23:36:59.282Z,8.3
2022-11-24T23:39:02.886Z,8.4
2022-11-24T23:41:06.498Z,8.5
2022-11-24T23:43:10.106Z,8.4
2022-11-24T23:45:16.755Z,8.5
2022-11-24T23:47:20.400Z,8.5
2022-11-24T23:51:27.602Z,8.5
2022-11-24T23:53:31.166Z,8.4
2022-11-24T23:55:34.789Z,8.4
2022-11-24T23:57:38.420Z,8.5
2022-11-24T23:59:45.104Z,8.4
